Time;durP1;ratioP1;P1;durP2;ratioP2;P2;SDS_P1;SDS_P2;PMS_P1;PMS_P2;Temp;Humidity;BMP_temperature;BMP_pressure;BME280_temperature;BME280_humidity;BME280_pressure;Samples;Min_cycle;Max_cycle;Signal;HPM_P1;HPM_P2
2023/11/30 00:01:54;;;;;;;18.48;12.13;;;;;;;0.20;79.03;97470.25;5044918;28;20110;-83
2023/11/30 00:04:19;;;;;;;21.70;13.48;;;;;;;0.22;79.38;97479.50;5063651;28;20036;-83
2023/11/30 00:06:44;;;;;;;24.10;14.48;;;;;;;0.28;79.56;97473.41;5062924;28;20033;-84
2023/11/30 00:09:10;;;;;;;22.90;14.30;;;;;;;0.12;79.68;97465.28;5064036;28;20043;-83
2023/11/30 00:11:36;;;;;;;22.80;14.77;;;;;;;0.11;80.04;97469.72;5070882;28;20107;-83
2023/11/30 00:14:02;;;;;;;23.98;13.30;;;;;;;0.28;79.94;97472.59;5066595;28;20059;-83
2023/11/30 00:16:27;;;;;;;23.38;14.60;;;;;;;0.11;80.23;97463.69;5064004;28;20058;-83
2023/11/30 00:18:53;;;;;;;25.08;13.85;;;;;;;0.23;79.85;97449.63;5067075;28;20052;-83
2023/11/30 00:21:18;;;;;;;24.92;14.77;;;;;;;0.28;79.32;97451.59;5052681;28;20107;-83
2023/11/30 00:23:43;;;;;;;23.88;13.80;;;;;;;0.32;79.56;97456.19;5049922;28;20662;-84
2023/11/30 00:26:09;;;;;;;22.63;14.13;;;;;;;0.31;79.06;97467.69;5050305;28;20034;-83
2023/11/30 00:28:37;;;;;;;22.35;14.20;;;;;;;0.34;79.51;97466.47;5070197;28;20108;-83
2023/11/30 00:31:03;;;;;;;20.20;14.30;;;;;;;0.23;79.44;97467.19;5051279;28;20032;-83
2023/11/30 00:33:28;;;;;;;22.13;14.50;;;;;;;0.19;79.66;97472.06;5049560;28;20040;-83
2023/11/30 00:35:53;;;;;;;25.98;15.18;;;;;;;0.08;79.25;97478.03;5050472;28;20032;-83
2023/11/30 00:38:19;;;;;;;21.38;12.65;;;;;;;0.14;79.13;97478.97;5049865;28;20112;-83
2023/11/30 00:40:44;;;;;;;21.33;13.30;;;;;;;0.18;78.96;97483.56;5049732;28;20047;-83
2023/11/30 00:43:09;;;;;;;23.45;15.05;;;;;;;-0.07;79.48;97449.50;5029552;28;20485;-84
2023/11/30 00:45:35;;;;;;;21.27;13.75;;;;;;;0.06;79.39;97481.88;5042739;28;20064;-84
2023/11/30 00:48:00;;;;;;;23.88;16.15;;;;;;;-0.01;79.85;97472.25;5051336;28;20039;-83
2023/11/30 00:50:25;;;;;;;22.42;14.55;;;;;;;0.02;79.62;97484.13;5044167;28;20468;-83
2023/11/30 00:52:51;;;;;;;28.27;16.67;;;;;;;0.05;80.05;97485.50;5048717;28;20451;-83
2023/11/30 00:55:16;;;;;;;22.75;15.07;;;;;;;0.08;80.08;97495.56;5044444;28;20029;-83
2023/11/30 00:57:41;;;;;;;26.15;15.98;;;;;;;0.01;80.94;97479.91;5063390;28;20024;-83
2023/11/30 01:00:10;;;;;;;22.75;15.45;;;;;;;0.13;80.66;97482.63;5030347;28;20120;-83
2023/11/30 01:02:37;;;;;;;26.35;14.48;;;;;;;0.08;80.76;97485.09;5082382;28;20399;-83
2023/11/30 01:05:02;;;;;;;28.90;15.45;;;;;;;0.17;80.75;97487.22;5043073;28;20039;-83
2023/11/30 01:07:28;;;;;;;25.77;16.02;;;;;;;0.06;80.94;97487.13;5084014;28;20399;-83
2023/11/30 01:09:53;;;;;;;23.85;14.20;;;;;;;-0.03;80.92;97484.78;5032917;28;20127;-83
2023/11/30 01:12:18;;;;;;;24.80;14.55;;;;;;;-0.06;81.15;97476.53;5060727;28;20035;-84
2023/11/30 01:14:44;;;;;;;28.00;16.27;;;;;;;0.05;80.92;97498.63;5049989;28;20114;-82
2023/11/30 01:17:09;;;;;;;27.75;14.35;;;;;;;0.05;81.25;97491.56;5060652;28;20081;-83
2023/11/30 01:19:35;;;;;;;27.95;16.13;;;;;;;0.03;80.51;97493.59;5042891;28;20041;-83
2023/11/30 01:22:00;;;;;;;23.80;15.30;;;;;;;0.03;80.56;97488.34;5062108;28;20032;-82
2023/11/30 01:24:25;;;;;;;23.38;14.25;;;;;;;0.08;79.86;97487.72;5038223;28;20052;-83
2023/11/30 01:26:51;;;;;;;23.67;14.18;;;;;;;0.05;79.94;97477.63;5067236;28;20085;-83
2023/11/30 01:29:16;;;;;;;24.35;14.77;;;;;;;0.01;79.32;97490.38;5046250;28;20170;-83
2023/11/30 01:31:42;;;;;;;28.08;14.93;;;;;;;0.06;79.42;97487.13;5062611;28;20024;-83
2023/11/30 01:34:08;;;;;;;27.08;16.10;;;;;;;0.13;79.30;97485.25;5061712;28;20445;-83
2023/11/30 01:36:34;;;;;;;24.63;15.13;;;;;;;0.06;78.65;97482.69;5062192;28;20123;-83
2023/11/30 01:38:59;;;;;;;29.63;14.57;;;;;;;0.04;78.37;97478.66;5047577;28;20400;-83
2023/11/30 01:41:25;;;;;;;26.20;15.05;;;;;;;0.00;79.40;97484.31;5062149;28;20037;-83
2023/11/30 01:43:50;;;;;;;25.60;14.18;;;;;;;-0.19;79.51;97487.13;5030422;28;20032;-83
2023/11/30 01:46:15;;;;;;;25.10;14.73;;;;;;;0.12;78.82;97494.94;5046045;28;20032;-83
2023/11/30 01:48:42;;;;;;;26.52;15.05;;;;;;;0.14;78.04;97478.97;5040384;28;20091;-83
2023/11/30 01:51:08;;;;;;;25.85;14.73;;;;;;;0.07;78.42;97480.88;5020266;28;20044;-83
2023/11/30 01:53:38;;;;;;;21.00;13.43;;;;;;;0.09;78.02;97477.00;5048204;28;20128;-84
2023/11/30 01:56:07;;;;;;;29.40;14.50;;;;;;;0.14;77.99;97484.22;5045231;28;20033;-84
2023/11/30 01:58:33;;;;;;;22.50;13.23;;;;;;;0.09;78.30;97481.47;5064761;28;20037;-84
2023/11/30 02:01:00;;;;;;;29.00;16.33;;;;;;;0.17;78.27;97478.53;5056580;28;20178;-83
2023/11/30 02:03:27;;;;;;;24.77;15.20;;;;;;;-0.01;79.37;97472.25;5064717;28;20028;-84
2023/11/30 02:05:52;;;;;;;27.65;15.95;;;;;;;-0.06;78.97;97461.59;5056943;28;20093;-84
2023/11/30 02:08:17;;;;;;;23.42;13.88;;;;;;;0.00;79.60;97465.97;5064043;28;20032;-84
2023/11/30 02:10:43;;;;;;;24.90;13.98;;;;;;;0.11;78.57;97471.56;5065603;28;20032;-84
2023/11/30 02:13:08;;;;;;;25.80;16.75;;;;;;;0.14;79.08;97468.47;5052683;28;20063;-84
2023/11/30 02:15:34;;;;;;;22.10;14.07;;;;;;;-0.07;78.37;97430.34;5064703;28;20037;-84
2023/11/30 02:18:00;;;;;;;26.92;15.35;;;;;;;0.13;79.02;97466.88;5065111;28;20024;-84
2023/11/30 02:20:25;;;;;;;25.88;14.15;;;;;;;0.13;78.69;97467.69;5043628;28;20121;-84
2023/11/30 02:22:50;;;;;;;28.77;14.65;;;;;;;0.10;78.79;97464.69;5050130;28;20025;-84
2023/11/30 02:25:16;;;;;;;23.15;14.98;;;;;;;0.17;79.34;97470.69;5036995;28;20693;-84
2023/11/30 02:27:41;;;;;;;27.02;15.13;;;;;;;0.00;79.97;97452.09;5065858;28;20042;-84
2023/11/30 02:30:07;;;;;;;24.42;15.13;;;;;;;0.11;80.07;97443.47;5065436;28;20028;-85
2023/11/30 02:32:33;;;;;;;27.15;14.02;;;;;;;0.31;78.92;97451.97;5069385;28;20503;-84
2023/11/30 02:34:59;;;;;;;25.45;15.15;;;;;;;0.15;79.22;97446.50;5051413;28;20077;-85
2023/11/30 02:37:24;;;;;;;24.90;14.65;;;;;;;0.12;79.11;97444.28;5033508;28;20021;-84
2023/11/30 02:39:50;;;;;;;22.95;14.18;;;;;;;0.19;79.44;97451.09;5065512;28;20051;-84
2023/11/30 02:42:15;;;;;;;22.95;13.75;;;;;;;0.03;80.14;97445.56;5049279;28;20032;-83
2023/11/30 02:44:41;;;;;;;23.65;13.45;;;;;;;0.15;80.19;97446.50;5082650;28;20044;-84
2023/11/30 02:47:06;;;;;;;27.77;14.82;;;;;;;0.06;80.69;97451.22;5046098;28;20048;-82
2023/11/30 02:49:31;;;;;;;22.35;14.30;;;;;;;0.23;80.40;97456.69;5032155;28;20047;-84
2023/11/30 02:51:57;;;;;;;25.77;14.55;;;;;;;0.09;80.19;97449.97;5063994;28;20148;-83
2023/11/30 02:54:22;;;;;;;31.52;15.27;;;;;;;0.19;79.79;97439.78;5062837;28;20024;-84
2023/11/30 02:56:47;;;;;;;25.60;14.77;;;;;;;0.13;79.91;97445.91;5066522;28;20020;-83
2023/11/30 02:59:13;;;;;;;26.23;14.27;;;;;;;0.29;79.87;97434.81;5052964;28;20028;-83
2023/11/30 03:01:45;;;;;;;26.65;15.45;;;;;;;0.31;79.67;97438.84;5047193;28;20377;-83
2023/11/30 03:04:11;;;;;;;24.38;14.73;;;;;;;0.21;79.79;97414.13;5067532;28;20613;-83
2023/11/30 03:06:36;;;;;;;23.05;14.30;;;;;;;0.19;80.00;97424.84;5046296;28;20153;-83
2023/11/30 03:09:01;;;;;;;25.10;14.80;;;;;;;0.23;79.23;97415.53;5062788;28;20043;-83
2023/11/30 03:11:27;;;;;;;33.08;15.77;;;;;;;0.26;79.06;97416.91;5066178;28;20033;-83
2023/11/30 03:13:52;;;;;;;23.92;15.30;;;;;;;0.29;79.58;97413.84;5063785;28;20455;-83
2023/11/30 03:16:25;;;;;;;26.50;14.52;;;;;;;0.21;78.80;97406.25;5063163;28;20489;-83
2023/11/30 03:18:51;;;;;;;23.10;14.57;;;;;;;0.22;79.27;97413.13;5065069;28;20507;-84
2023/11/30 03:21:20;;;;;;;23.50;14.32;;;;;;;0.17;79.60;97410.34;5065224;28;20024;-83
2023/11/30 03:23:46;;;;;;;26.15;13.90;;;;;;;0.25;79.01;97412.69;5077658;28;20040;-83
2023/11/30 03:26:16;;;;;;;24.75;14.55;;;;;;;0.27;78.84;97394.88;5064139;28;20512;-84
2023/11/30 03:28:41;;;;;;;23.10;13.77;;;;;;;0.11;78.44;97398.09;5062924;28;20041;-84
2023/11/30 03:31:06;;;;;;;24.17;13.98;;;;;;;0.19;79.43;97408.31;5046250;28;20090;-84
2023/11/30 03:33:32;;;;;;;23.00;14.25;;;;;;;0.19;79.03;97403.88;5047052;28;20045;-84
2023/11/30 03:35:57;;;;;;;22.58;14.77;;;;;;;0.15;79.12;97407.13;5046933;28;20028;-84
2023/11/30 03:38:23;;;;;;;26.08;14.23;;;;;;;0.19;78.54;97403.06;5068047;28;20024;-83
2023/11/30 03:40:48;;;;;;;23.80;14.93;;;;;;;0.17;79.10;97399.84;5067261;28;20032;-83
2023/11/30 03:43:14;;;;;;;23.35;14.63;;;;;;;0.06;78.92;97396.13;5041004;28;20040;-83
2023/11/30 03:45:39;;;;;;;21.65;13.70;;;;;;;0.13;78.84;97406.56;5065404;28;20056;-83
2023/11/30 03:48:05;;;;;;;21.63;13.73;;;;;;;0.12;79.02;97408.38;5066490;28;20032;-83
2023/11/30 03:50:30;;;;;;;25.02;14.18;;;;;;;0.06;79.38;97404.00;5066107;28;20024;-83
2023/11/30 03:52:55;;;;;;;24.98;14.00;;;;;;;-0.26;78.69;97390.19;5066043;28;20062;-83
2023/11/30 03:55:22;;;;;;;24.08;14.75;;;;;;;-0.05;79.29;97408.16;5046670;28;20037;-83
2023/11/30 03:57:47;;;;;;;24.52;14.30;;;;;;;0.01;78.89;97393.34;5066114;28;20115;-83
2023/11/30 04:00:14;;;;;;;25.25;14.10;;;;;;;0.12;78.82;97412.81;5059084;28;20116;-83
2023/11/30 04:02:42;;;;;;;24.63;15.27;;;;;;;0.11;78.45;97412.00;5057070;28;20032;-83
2023/11/30 04:05:10;;;;;;;23.25;15.27;;;;;;;0.04;78.81;97405.25;5067018;28;20484;-83
2023/11/30 04:07:37;;;;;;;25.35;15.00;;;;;;;-0.01;78.24;97390.97;5067651;28;20720;-83
2023/11/30 04:10:03;;;;;;;25.58;15.00;;;;;;;0.00;78.40;97402.25;5064588;28;20487;-83
2023/11/30 04:12:28;;;;;;;25.50;14.30;;;;;;;-0.01;78.56;97408.50;5063625;28;20082;-82
2023/11/30 04:14:54;;;;;;;29.23;15.55;;;;;;;-0.08;78.67;97408.56;5066114;28;20024;-83
2023/11/30 04:17:19;;;;;;;28.75;15.00;;;;;;;0.02;78.48;97418.56;5067646;28;20414;-83
2023/11/30 04:19:45;;;;;;;26.50;15.45;;;;;;;-0.07;78.43;97415.41;5063422;28;20119;-83
2023/11/30 04:22:10;;;;;;;28.13;16.02;;;;;;;-0.02;78.28;97401.66;5048397;28;20119;-83
2023/11/30 04:24:35;;;;;;;27.48;15.38;;;;;;;-0.03;78.81;97400.88;5044346;28;20063;-83
2023/11/30 04:27:01;;;;;;;26.52;14.75;;;;;;;0.06;78.44;97411.88;5066032;28;20032;-83
2023/11/30 04:29:28;;;;;;;26.85;15.43;;;;;;;0.03;78.42;97412.28;5044855;28;20042;-83
2023/11/30 04:31:53;;;;;;;20.00;14.35;;;;;;;0.01;78.34;97416.97;5060049;28;20070;-83
2023/11/30 04:34:19;;;;;;;28.90;16.63;;;;;;;0.05;78.62;97422.56;5050354;28;20480;-83
2023/11/30 04:36:44;;;;;;;28.45;15.65;;;;;;;0.02;78.01;97409.91;5060893;28;20029;-83
2023/11/30 04:39:11;;;;;;;23.35;14.30;;;;;;;-0.08;78.03;97408.56;5064920;28;20032;-83
2023/11/30 04:41:37;;;;;;;23.35;14.75;;;;;;;-0.04;78.48;97406.31;5063970;28;20078;-83
2023/11/30 04:44:03;;;;;;;23.00;15.57;;;;;;;-0.12;78.57;97407.41;5049565;28;20388;-83
2023/11/30 04:46:29;;;;;;;25.58;14.48;;;;;;;-0.17;79.00;97402.00;5062679;28;20035;-82
2023/11/30 04:48:55;;;;;;;22.38;14.85;;;;;;;-0.04;78.90;97414.97;5050136;28;20488;-83
2023/11/30 04:51:20;;;;;;;27.13;16.58;;;;;;;-0.13;78.09;97392.69;5059128;28;20036;-83
2023/11/30 04:53:46;;;;;;;26.13;15.73;;;;;;;-0.08;78.38;97411.19;5057258;28;20136;-83
2023/11/30 04:56:11;;;;;;;24.40;15.38;;;;;;;-0.10;78.18;97396.69;5061165;28;20060;-82
2023/11/30 04:58:36;;;;;;;24.38;15.90;;;;;;;-0.01;78.26;97409.31;5058028;28;20060;-82
2023/11/30 05:01:02;;;;;;;21.90;12.90;;;;;;;-0.12;78.12;97411.84;5043822;28;20540;-83
2023/11/30 05:03:27;;;;;;;25.08;14.57;;;;;;;-0.06;77.81;97416.22;5062543;28;20029;-83
2023/11/30 05:05:53;;;;;;;22.13;13.75;;;;;;;-0.04;77.83;97419.41;5062111;28;20032;-83
2023/11/30 05:08:18;;;;;;;23.60;13.98;;;;;;;-0.05;77.51;97425.69;5065501;28;20086;-82
2023/11/30 05:10:43;;;;;;;23.63;13.68;;;;;;;-0.04;77.54;97424.66;5058778;28;20115;-82
2023/11/30 05:13:09;;;;;;;23.58;13.20;;;;;;;-0.10;78.11;97422.91;5066710;28;20122;-83
2023/11/30 05:15:38;;;;;;;21.17;13.77;;;;;;;-0.31;78.17;97421.50;5045451;28;20028;-83
2023/11/30 05:18:03;;;;;;;21.10;13.23;;;;;;;-0.23;78.78;97405.47;5042943;28;20028;-83
2023/11/30 05:20:28;;;;;;;22.20;12.85;;;;;;;-0.15;78.00;97422.75;5038892;28;20058;-83
2023/11/30 05:22:54;;;;;;;22.13;12.20;;;;;;;-0.12;78.07;97423.13;5058201;28;20126;-82
2023/11/30 05:25:19;;;;;;;24.55;13.43;;;;;;;-0.08;77.76;97428.75;5075065;28;20025;-82
2023/11/30 05:27:44;;;;;;;21.65;13.20;;;;;;;-0.20;77.18;97415.53;5020918;28;20073;-82
2023/11/30 05:30:10;;;;;;;24.55;13.73;;;;;;;-0.12;77.27;97414.47;5025248;28;20039;-82
2023/11/30 05:32:36;;;;;;;20.65;12.75;;;;;;;-0.17;77.75;97422.97;5065409;28;20024;-82
2023/11/30 05:35:02;;;;;;;21.77;12.60;;;;;;;-0.17;77.88;97419.53;5040317;28;21068;-82
2023/11/30 05:37:27;;;;;;;23.77;13.80;;;;;;;-0.16;77.42;97421.16;5030948;28;20032;-82
2023/11/30 05:39:52;;;;;;;22.35;12.75;;;;;;;-0.20;78.03;97423.38;5061613;28;20043;-82
2023/11/30 05:42:18;;;;;;;19.77;12.85;;;;;;;-0.21;77.40;97423.59;5049594;28;20097;-82
2023/11/30 05:44:43;;;;;;;21.00;12.73;;;;;;;-0.15;77.77;97423.56;5028798;28;20135;-82
2023/11/30 05:47:08;;;;;;;23.00;13.55;;;;;;;-0.19;77.56;97418.94;5044041;28;20712;-82
2023/11/30 05:49:34;;;;;;;24.27;13.45;;;;;;;-0.31;77.52;97424.13;5042438;28;20040;-82
2023/11/30 05:51:59;;;;;;;20.13;13.05;;;;;;;-0.17;77.71;97430.03;5047714;28;20028;-82
2023/11/30 05:54:24;;;;;;;24.48;14.25;;;;;;;-0.15;77.13;97436.66;5043075;28;20074;-83
2023/11/30 05:56:50;;;;;;;21.08;12.93;;;;;;;-0.13;77.43;97445.13;5047157;28;20021;-81
2023/11/30 05:59:15;;;;;;;24.55;14.07;;;;;;;-0.47;78.77;97445.59;5058959;28;20377;-82
2023/11/30 06:01:40;;;;;;;23.05;13.98;;;;;;;-0.62;79.08;97436.44;5061807;28;20025;-82
2023/11/30 06:04:06;;;;;;;20.10;13.70;;;;;;;-0.50;79.17;97437.38;5056482;28;20106;-81
2023/11/30 06:06:31;;;;;;;22.50;13.38;;;;;;;-1.13;80.31;97454.84;5047397;28;20029;-81
2023/11/30 06:08:56;;;;;;;24.25;14.25;;;;;;;-1.42;81.43;97450.16;5063548;28;20543;-81
2023/11/30 06:11:22;;;;;;;32.35;15.63;;;;;;;-1.33;82.38;97454.94;5045287;28;20204;-82
2023/11/30 06:13:47;;;;;;;22.20;13.52;;;;;;;-0.80;81.70;97456.28;5046482;28;21102;-81
2023/11/30 06:16:13;;;;;;;23.52;14.07;;;;;;;-0.51;81.27;97441.00;5061755;28;20035;-81
2023/11/30 06:18:38;;;;;;;27.80;16.08;;;;;;;-0.69;80.73;97454.00;5050941;28;20400;-81
2023/11/30 06:21:09;;;;;;;23.38;13.77;;;;;;;-0.27;80.37;97448.06;5047141;28;20036;-81
2023/11/30 06:23:35;;;;;;;23.15;13.60;;;;;;;-0.11;79.15;97445.69;5066683;28;20024;-81
2023/11/30 06:26:01;;;;;;;21.38;12.95;;;;;;;-0.17;79.35;97456.25;5061848;28;20369;-81
2023/11/30 06:28:28;;;;;;;21.67;13.35;;;;;;;-0.08;79.33;97455.75;5053171;28;20057;-81
2023/11/30 06:30:54;;;;;;;23.63;13.77;;;;;;;-0.17;79.68;97459.66;5060033;28;20069;-81
2023/11/30 06:33:19;;;;;;;25.88;13.20;;;;;;;-0.13;79.86;97446.94;5068811;28;20124;-81
2023/11/30 06:35:45;;;;;;;23.35;11.95;;;;;;;-0.05;79.32;97455.34;5036688;28;20109;-81
2023/11/30 06:38:11;;;;;;;23.05;14.15;;;;;;;-0.17;79.35;97451.00;5065309;28;20819;-81
2023/11/30 06:40:37;;;;;;;60.35;32.65;;;;;;;-0.55;80.51;97451.09;5064022;28;20024;-81
2023/11/30 06:43:02;;;;;;;30.05;19.02;;;;;;;-0.40;80.12;97445.56;5051155;28;20500;-81
2023/11/30 06:45:28;;;;;;;24.65;15.98;;;;;;;-0.24;80.11;97445.03;5068453;28;20040;-82
2023/11/30 06:47:53;;;;;;;28.55;17.67;;;;;;;-0.04;79.57;97445.63;5065498;28;20033;-82
2023/11/30 06:50:18;;;;;;;25.63;16.85;;;;;;;-0.07;79.01;97449.50;5047946;28;20028;-81
2023/11/30 06:52:44;;;;;;;25.95;16.70;;;;;;;-0.08;79.09;97442.66;5069283;28;20060;-81
2023/11/30 06:55:09;;;;;;;29.40;17.27;;;;;;;-0.18;79.33;97446.78;5069226;28;20032;-81
2023/11/30 06:57:36;;;;;;;27.83;16.90;;;;;;;-0.20;79.44;97449.59;5063610;28;20113;-81
2023/11/30 07:00:03;;;;;;;23.63;14.77;;;;;;;-0.22;79.89;97445.63;5071108;28;20039;-81
2023/11/30 07:02:28;;;;;;;33.63;15.55;;;;;;;-0.20;79.79;97451.44;5070337;28;20036;-81
2023/11/30 07:04:53;;;;;;;25.70;16.02;;;;;;;-0.10;79.62;97444.69;5072838;28;20036;-81
2023/11/30 07:07:19;;;;;;;27.60;15.60;;;;;;;-0.05;79.39;97454.53;5055732;28;20672;-81
2023/11/30 07:09:44;;;;;;;20.70;13.35;;;;;;;-0.23;79.25;97452.66;5066781;28;20025;-80
2023/11/30 07:12:10;;;;;;;26.95;14.40;;;;;;;-0.19;79.51;97456.47;5061440;28;20045;-80
2023/11/30 07:14:36;;;;;;;23.80;13.85;;;;;;;-0.23;80.08;97447.44;5069256;28;20094;-81
2023/11/30 07:17:02;;;;;;;22.80;14.15;;;;;;;-0.19;79.85;97445.97;5053689;28;20067;-80
2023/11/30 07:19:28;;;;;;;23.30;14.45;;;;;;;-0.17;80.06;97445.75;5056459;28;20040;-81
2023/11/30 07:21:53;;;;;;;23.23;13.77;;;;;;;-0.08;79.79;97450.53;5049341;28;20059;-80
2023/11/30 07:24:19;;;;;;;23.58;13.77;;;;;;;-0.15;79.96;97441.91;5067668;28;20029;-81
2023/11/30 07:26:48;;;;;;;22.73;13.73;;;;;;;-0.09;79.67;97437.63;5050889;28;20095;-81
2023/11/30 07:29:15;;;;;;;22.40;12.77;;;;;;;-0.02;79.49;97454.09;5068602;28;20032;-81
2023/11/30 07:31:40;;;;;;;20.73;14.20;;;;;;;-0.06;79.45;97451.09;5040048;28;20025;-80
2023/11/30 07:34:06;;;;;;;25.92;15.20;;;;;;;0.13;79.29;97449.34;5046862;28;20033;-81
2023/11/30 07:36:31;;;;;;;20.30;13.07;;;;;;;0.14;78.73;97453.53;5063721;28;20021;-81
2023/11/30 07:38:57;;;;;;;23.98;13.55;;;;;;;0.11;78.92;97459.22;5060465;28;20035;-81
2023/11/30 07:41:22;;;;;;;28.98;15.02;;;;;;;-0.42;79.05;97445.78;5041330;28;20123;-81
2023/11/30 07:43:49;;;;;;;22.05;13.57;;;;;;;-0.31;80.28;97460.81;5029150;28;20040;-81
2023/11/30 07:46:14;;;;;;;21.80;13.48;;;;;;;-0.07;80.46;97452.09;5043066;28;20033;-81
2023/11/30 07:48:39;;;;;;;24.52;13.70;;;;;;;-0.07;79.95;97443.47;5066322;28;20362;-80
2023/11/30 07:51:05;;;;;;;25.42;15.25;;;;;;;-0.01;80.20;97448.66;5055149;28;20046;-80
2023/11/30 07:53:31;;;;;;;24.25;13.40;;;;;;;0.15;79.86;97460.41;5034213;28;20052;-80
2023/11/30 07:55:56;;;;;;;25.98;15.65;;;;;;;0.06;79.63;97439.91;5054078;28;20119;-80
2023/11/30 07:58:22;;;;;;;22.55;15.13;;;;;;;0.13;79.31;97445.91;5050585;28;20028;-81
2023/11/30 08:00:48;;;;;;;19.98;13.02;;;;;;;0.31;79.03;97445.91;5066846;28;20028;-81
2023/11/30 08:03:14;;;;;;;26.50;15.73;;;;;;;0.14;79.48;97452.75;5065800;28;20041;-81
2023/11/30 08:05:39;;;;;;;23.30;14.27;;;;;;;0.27;79.49;97457.84;5047998;28;20514;-81
2023/11/30 08:08:04;;;;;;;25.83;14.23;;;;;;;0.22;79.45;97442.75;5071022;28;20075;-81
2023/11/30 08:10:31;;;;;;;25.90;14.32;;;;;;;0.19;78.93;97445.03;5034499;28;20029;-81
2023/11/30 08:12:56;;;;;;;24.48;14.82;;;;;;;0.25;79.08;97454.66;5067929;28;20437;-80
2023/11/30 08:15:22;;;;;;;21.40;13.73;;;;;;;0.29;78.98;97445.31;5066333;28;20119;-80
2023/11/30 08:17:47;;;;;;;25.55;14.98;;;;;;;0.32;78.74;97444.91;5050337;28;20510;-80
2023/11/30 08:20:13;;;;;;;24.58;13.68;;;;;;;0.24;78.87;97438.09;5066677;28;20037;-81
2023/11/30 08:22:40;;;;;;;24.90;14.75;;;;;;;0.34;78.60;97443.66;5068355;28;20051;-80
2023/11/30 08:25:06;;;;;;;27.55;16.27;;;;;;;-0.29;80.23;97445.66;5050245;28;20033;-81
2023/11/30 08:27:33;;;;;;;29.80;16.02;;;;;;;-0.29;80.93;97450.91;5033713;28;20025;-80
2023/11/30 08:29:59;;;;;;;24.65;15.27;;;;;;;0.10;80.27;97460.25;5019636;28;20028;-80
2023/11/30 08:32:25;;;;;;;32.00;16.13;;;;;;;0.27;79.75;97455.22;5065983;28;20044;-81
2023/11/30 08:34:51;;;;;;;28.67;15.65;;;;;;;0.38;79.59;97454.50;5052251;28;20076;-81
2023/11/30 08:37:16;;;;;;;29.13;16.13;;;;;;;0.19;80.03;97439.78;5070934;28;20416;-80
2023/11/30 08:39:42;;;;;;;22.45;14.35;;;;;;;0.19;79.75;97430.09;5069937;28;20055;-81
2023/11/30 08:42:07;;;;;;;36.50;18.73;;;;;;;-0.31;80.46;97449.50;5067606;28;20044;-81
2023/11/30 08:44:35;;;;;;;26.17;14.20;;;;;;;0.33;80.28;97443.88;5070299;28;20033;-81
2023/11/30 08:47:00;;;;;;;25.38;14.65;;;;;;;0.33;79.27;97438.66;5051275;28;20397;-81
2023/11/30 08:49:26;;;;;;;28.25;15.77;;;;;;;0.33;79.41;97436.03;5062379;28;20048;-81
2023/11/30 08:51:52;;;;;;;25.23;14.23;;;;;;;0.43;79.19;97439.72;5064487;28;20455;-81
2023/11/30 08:54:20;;;;;;;27.52;15.40;;;;;;;0.34;79.41;97427.91;5064152;28;20506;-81
2023/11/30 08:56:46;;;;;;;23.80;14.43;;;;;;;0.43;79.50;97444.97;5061558;28;20028;-81
2023/11/30 08:59:12;;;;;;;26.05;15.95;;;;;;;0.33;79.33;97433.41;5050785;28;20051;-82
2023/11/30 09:01:37;;;;;;;25.00;14.27;;;;;;;0.46;79.36;97436.66;5064813;28;20065;-81
2023/11/30 09:04:04;;;;;;;25.50;14.18;;;;;;;0.54;79.26;97444.25;5061222;28;20029;-81
2023/11/30 09:06:30;;;;;;;21.67;13.10;;;;;;;0.42;79.48;97448.63;5068440;28;20384;-81
2023/11/30 09:08:56;;;;;;;25.42;14.30;;;;;;;0.48;79.42;97439.09;5082292;28;20036;-80
2023/11/30 09:11:21;;;;;;;29.98;16.45;;;;;;;0.22;79.84;97423.63;5067956;28;20028;-81
2023/11/30 09:13:47;;;;;;;24.63;14.30;;;;;;;0.17;80.23;97426.09;5066573;28;20535;-81
2023/11/30 09:16:12;;;;;;;43.42;21.52;;;;;;;0.25;80.26;97431.84;5062990;28;20028;-80
2023/11/30 09:18:38;;;;;;;44.85;26.10;;;;;;;-0.39;81.77;97436.66;5049827;28;20198;-80
2023/11/30 09:21:03;;;;;;;28.48;16.45;;;;;;;0.03;81.96;97432.47;5052286;28;20428;-80
2023/11/30 09:23:29;;;;;;;31.98;16.45;;;;;;;0.42;80.48;97438.13;5045290;28;20215;-81
2023/11/30 09:25:55;;;;;;;28.77;15.80;;;;;;;0.51;80.19;97428.13;5062295;28;20106;-81
2023/11/30 09:28:21;;;;;;;25.33;14.98;;;;;;;0.44;79.74;97419.53;5033983;28;20132;-81
2023/11/30 09:30:46;;;;;;;26.77;16.40;;;;;;;0.63;79.83;97423.75;5065870;28;20396;-80
2023/11/30 09:33:13;;;;;;;26.98;15.43;;;;;;;0.53;79.57;97420.84;5066299;28;20085;-80
2023/11/30 09:35:38;;;;;;;30.27;16.65;;;;;;;0.77;79.19;97426.00;5048843;28;20460;-80
2023/11/30 09:38:04;;;;;;;26.92;15.32;;;;;;;0.53;79.65;97420.84;5047839;28;20032;-80
2023/11/30 09:40:29;;;;;;;26.00;15.45;;;;;;;0.60;79.81;97424.19;5061295;28;20403;-81
2023/11/30 09:42:56;;;;;;;26.02;16.17;;;;;;;0.48;79.92;97420.72;5064493;28;20032;-81
2023/11/30 09:45:23;;;;;;;32.33;18.08;;;;;;;-0.05;81.20;97418.63;5065506;28;20318;-80
2023/11/30 09:47:49;;;;;;;31.55;16.23;;;;;;;0.64;80.56;97417.47;5068799;28;20033;-81
2023/11/30 09:50:15;;;;;;;27.30;15.73;;;;;;;0.74;79.35;97402.00;5040826;28;20377;-81
2023/11/30 09:52:42;;;;;;;32.53;18.15;;;;;;;0.68;79.31;97411.56;5048387;28;20025;-81
2023/11/30 09:55:10;;;;;;;29.42;15.85;;;;;;;0.77;79.08;97396.31;5056439;28;20361;-81
2023/11/30 09:57:36;;;;;;;28.52;15.95;;;;;;;0.85;79.22;97387.34;5067288;28;20447;-81
2023/11/30 10:00:01;;;;;;;24.60;15.68;;;;;;;0.86;79.21;97394.16;5065035;28;20036;-80
2023/11/30 10:02:27;;;;;;;28.83;16.50;;;;;;;0.87;78.95;97390.53;5044256;28;20025;-80
2023/11/30 10:04:53;;;;;;;25.80;16.48;;;;;;;0.84;79.32;97391.78;5063898;28;20027;-82
2023/11/30 10:07:20;;;;;;;27.98;17.67;;;;;;;0.80;79.70;97384.56;5063688;28;20033;-82
2023/11/30 10:09:46;;;;;;;25.27;15.70;;;;;;;0.77;79.20;97378.72;5065032;28;20027;-81
2023/11/30 10:12:11;;;;;;;27.17;16.23;;;;;;;0.83;79.34;97389.38;5045543;28;20041;-82
2023/11/30 10:14:37;;;;;;;27.83;16.88;;;;;;;0.72;79.42;97377.81;5046259;28;20119;-81
2023/11/30 10:17:03;;;;;;;31.55;18.42;;;;;;;0.32;79.82;97368.81;5056113;28;20025;-81
2023/11/30 10:19:30;;;;;;;28.92;17.23;;;;;;;0.75;79.72;97367.66;5041704;28;20532;-82
2023/11/30 10:21:56;;;;;;;29.88;18.60;;;;;;;0.56;79.89;97373.16;5062356;28;20402;-82
2023/11/30 10:24:23;;;;;;;29.83;18.25;;;;;;;0.54;80.87;97365.50;5067661;28;20047;-82
2023/11/30 10:26:52;;;;;;;28.13;17.75;;;;;;;0.64;80.61;97357.09;5057185;28;20033;-82
2023/11/30 10:29:20;;;;;;;34.30;18.92;;;;;;;0.23;80.43;97357.00;5065490;28;20031;-81
2023/11/30 10:31:49;;;;;;;27.33;16.92;;;;;;;0.48;81.04;97355.88;5071037;28;20043;-81
2023/11/30 10:34:20;;;;;;;25.17;16.83;;;;;;;0.61;80.79;97349.69;5060416;28;20036;-82
2023/11/30 10:36:45;;;;;;;26.25;16.38;;;;;;;0.86;80.16;97354.78;5062530;28;20107;-82
2023/11/30 10:39:19;;;;;;;27.30;15.55;;;;;;;0.59;80.28;97346.47;5044554;28;20127;-81
2023/11/30 10:41:50;;;;;;;26.05;16.10;;;;;;;0.81;79.99;97355.44;5051109;28;20032;-82
2023/11/30 10:44:27;;;;;;;27.35;16.63;;;;;;;0.84;79.99;97354.19;5059701;28;20425;-83
2023/11/30 10:46:57;;;;;;;28.15;16.27;;;;;;;0.56;80.21;97349.53;5068698;28;20033;-82
2023/11/30 10:49:24;;;;;;;26.05;17.08;;;;;;;0.37;80.83;97337.47;5054248;28;20044;-82
2023/11/30 10:51:51;;;;;;;25.13;16.45;;;;;;;0.34;81.20;97333.47;5063649;28;20484;-82
2023/11/30 10:54:39;;;;;;;26.42;15.80;;;;;;;0.29;82.53;97340.38;5068742;28;20044;-82
2023/11/30 10:57:06;;;;;;;28.67;16.88;;;;;;;0.48;81.64;97323.59;5083043;28;20389;-82
2023/11/30 10:59:32;;;;;;;28.13;15.80;;;;;;;0.38;81.16;97332.00;5048760;28;20051;-82
2023/11/30 11:01:58;;;;;;;33.63;17.90;;;;;;;0.28;81.22;97330.91;5085310;28;20029;-82
2023/11/30 11:04:25;;;;;;;30.20;17.23;;;;;;;0.25;81.70;97328.72;5063417;28;20438;-83
2023/11/30 11:07:00;;;;;;;31.48;16.88;;;;;;;0.37;82.21;97330.38;5065575;28;20021;-83
2023/11/30 11:09:25;;;;;;;27.55;16.08;;;;;;;0.18;81.92;97331.44;5059553;28;20025;-83
2023/11/30 11:11:59;;;;;;;32.95;19.00;;;;;;;0.34;81.63;97320.34;5067576;28;20419;-82
2023/11/30 11:14:33;;;;;;;27.73;15.18;;;;;;;0.03;82.24;97309.22;5060238;28;20040;-83
2023/11/30 11:17:20;;;;;;;26.10;15.73;;;;;;;0.15;83.20;97331.88;5064938;28;20025;-82